Stillwater, OK (74075)

23:23 CDT le 28 Mars 2015 (GMT -0500)
Stillwater, East Side | | Change Station
CLOSE
Current Station
Stations météorologiques personnelles
Location: Stillwater, OK
Altitude: 935 ft
Stations météo à proximité

Alt. 935 ft 36.12 °N, 97.04 °W | Updated 32 seconds ago

Clear
Ciel dégagé
56.7 ° F
Paraît 56.7 ° F
N
3.2
Vent Variable Vent de SE
Gusts 4.6 mph

Aujourd'hui
Haut(e) -- | Bas -- ° F
--% Risque de précip.
Hier
Haut(e) -- | Bas -- ° F
Precip. -- pouce
7:20 AM 7:46 PM
Lune gibbeuse croissante, 68% visible
Pression 30.01 pouce
Visibilité 10.0 Miles terrestres
Nuages Ciel dégagé
Point de rosée 46 ° F
Humidité 66%
Précipitations 0.00 pouce
Profondeur de la couche neigeuse Non disponible.
UV 0.0 sur 12
Pollen 10.50 sur 12
Qualité de l'air Non disponible.
Flu Activity Non disponible.
METAR KSWO 290353Z AUTO 12012KT 10SM CLR 14/06 A3002 RMK AO2 SLP161 T01440061 TSNO

More Conditions Fewer Conditions

Pression 30.01 pouce
Visibilité 10.0 Miles terrestres
Nuages Ciel dégagé
Point de rosée 46 ° F
Humidité 66%
Précipitations 0.00 pouce
Profondeur de la couche neigeuse Non disponible.
UV 0.0 sur 12
Pollen 10.50 sur 12
Qualité de l'air Non disponible.
Flu Activity Non disponible.
METAR KSWO 290353Z AUTO 12012KT 10SM CLR 14/06 A3002 RMK AO2 SLP161 T01440061 TSNO

More Conditions Fewer Conditions

10-Day Weather Forecast

Almanac

Astronomie

Mar. 28, 2015 Lever Coucher
Temps réel
Crépuscule civil
Crépuscule nautique
Crépuscule astronomique
Lune
Durée de lumière visible
Longueur du jour
Tomorrow will be .
, % of the Moon is Illuminated

Extrêmes aujourd'hui

State Highs State Lows

Community

WunderPhotos

Upload Photos

1,809,185 Photos téléchargées !

WunderBlogs® & News

Nearby

Qualité de l'air

  Qualité de l'air Indice de la qualité de l'air Polluant
Not available.

Épaisseur de neige

Station Depth Altitude

Activité sismique

Ville Distance Mag. Time & Date
Minimum magnitude displayed is 2.5.

Températures des eaux côtières

Lieu Température

Stations

Stations météo à proximité

Emplacement de la station Température Refroidissement éolien Point de rosée Humidité Vent Precip. Alt. Mise à jour Type